Mateus Lopes

Scout - Internacional
4 Apr 2027
Sunday
Process

Personality

Adaptability (12) Ambition (2) Controversy (12) Loyalty (20) Pressure (11) Professionalism (15) Sportsmanship (5) Temperament (9)

Profile

Coaching Style Democratic
License Continental Pro
Determination 9
Man Management 9
Motivating 9
Discipline 13
Job Satisfaction
50%
Fatigue
0%
Role Scout
Wage 93.0K p/w
Contract 14.03.2030

Performance

Behaviour Normal
Training Effectiveness
22%
Player Development
70%
Injury Prevention
45%
Tactical Implementation
50%

Recent Events

Attended a recruitment meeting now
Assessed a player now
Attended a recruitment meeting 7d ago
Assessed a player 7d ago
Assessed a player 7d ago
Assessed a player 14d ago
Attended a recruitment meeting 14d ago
Assessed a player 14d ago

Currently Monitoring

163
Player Club Status Ability Confidence Watched Last Observed Latest Vote
Ianis Stoica Estrela da Amadora Active 117 / 112 40% 5 02.04.2027 -
Figueiredo Alverca Active 134 / 130 40% 1 02.04.2027 -
André Lacximicant Estoril Praia Active 119 / 113 40% 2 01.04.2027 -
Dom Ballard Leyton Orient Active 119 / 118 40% 4 01.04.2027 -
Etiosa Ighodaro Kaizer Chiefs Active 118 / 111 40% 1 01.04.2027 -
Martín Tejón Maritimo Active 121 / 120 40% 5 31.03.2027 -
Khayon Edwards Estoril Praia Active 100 / 107 40% 1 31.03.2027 -
Itumeleng Tau Ajax Cape Town Active 120 / 126 40% 2 28.03.2027 -
Lorent Tolaj Plymouth Argyle Active 113 / 110 40% 2 28.03.2027 -
Niall Ennis Blackpool Active 118 / 122 40% 1 28.03.2027 -
Raúl Alcaina Penafiel Active 107 / 110 40% 4 27.03.2027 -
Stephen Amankona Aduana Stars Active 103 / 97 40% 4 27.03.2027 -
Amos Inusah Wa All Stars Active 122 / 100 40% 1 27.03.2027 -
Bryan Limbombe Maritimo Active 108 / 118 40% 1 19.03.2027 -
Efraín Álvarez Guadalajara Active 125 / 136 40% 4 15.03.2027 -
José Bica Leixões Active 107 / 112 40% 3 15.03.2027 -
Dylan Nandín Arouca Active 119 / 120 40% 4 14.03.2027 -
Gustavo Silva Vitoria Guimaraes Active 132 / 111 40% 1 14.03.2027 -
Luccas Paraízo Leixões Active 111 / 96 40% 3 12.03.2027 -
Samy Merheg Alverca Active 102 / 124 40% 2 12.03.2027 -
Mésaque Djú Portimonense Active 101 / 90 40% 3 10.03.2027 -
Florián Monzón Atlas Active 118 / 119 40% 3 22.02.2027 -
Sydney van Hooijdonk Estrela da Amadora Active 120 / 104 40% 4 22.02.2027 -
Evidence Makgopa Orlando Pirates Active 123 / 117 40% 1 22.02.2027 -
Toni Tamarit Alverca Active 115 / 130 40% 4 21.02.2027 -
Hlompho Modiba Black Aces Active 92 / 89 40% 1 21.02.2027 -
Gabriel Barbosa Farense Active 103 / 102 40% 1 20.02.2027 -
Giorgos Koutsias Famalicao Active 114 / 127 40% 4 18.02.2027 -
Jorge Aguirre Torreense Active 97 / 94 40% 4 18.02.2027 -
Ashkan Shojaei Siah Jamegan Active 120 / 123 40% 2 18.02.2027 -
Miguel Falé Pacos de Ferreira Active 101 / 111 40% 1 17.02.2027 -
Korede Osundina Casa Pia Active 113 / 108 40% 5 06.02.2027 -
Vinícius Lopes Santa Clara Active 115 / 118 40% 3 06.02.2027 -
Allahyar Sayyadmanesh Lech Active 122 / 138 40% 1 06.02.2027 -
João Costa Santa Clara Active 108 / 111 40% 1 23.01.2027 -
Jalen Blesa Rio Ave Active 119 / 110 40% 2 16.01.2027 -
Alfonso Trezza Arouca Active 130 / 121 40% 1 16.01.2027 -
Yassin Fortuné Vizela Active 114 / 105 40% 2 13.01.2027 -
Alexandre Duville-Parsemain Moreirense Active 102 / 98 40% 1 13.01.2027 -
Henrique Araújo Casa Pia Active 130 / 121 40% 2 11.01.2027 -
Camilo Durán Bloemfontein Celtic Active 113 / 122 40% 4 08.01.2027 -
Jonas Wind Braga Active 137 / 131 40% 1 08.01.2027 -
Nicolò Tresoldi Club Brugge Active 133 / 128 40% 1 08.01.2027 -
Brenner Vasco da Gama Active 131 / 121 40% 2 01.01.2027 -
Gabriel Novaes Nacional Active 113 / 114 40% 2 24.12.2026 -
Matheus Henrique Cruzeiro Active 136 / 126 40% 3 30.11.2026 -
Kaveh Mohammadi Padideh Active 125 / 125 40% 1 30.11.2026 -
Jorge Meireles AVS Active 116 / 101 40% 3 29.11.2026 -
Federico Pereira Toluca Active 130 / 125 40% 3 29.11.2026 -
Rubén Duarte Pumas UNAM Active 131 / 130 40% 3 25.11.2026 -
Jon Guridi Sevilla Active 142 / 139 40% 1 25.11.2026 -
Exequiel Zeballos Boca Juniors Active 129 / 138 40% 4 24.11.2026 -
Luís Guilherme Sporting CP Active 126 / 137 40% 2 24.11.2026 -
David Costa Torreense Active 112 / 93 40% 1 24.11.2026 -
Taichi Fukui Arouca Active 128 / 125 40% 3 23.11.2026 -
Vinicinho Bragantino Active 127 / 120 40% 1 23.11.2026 -
Ivan Edson Veracruz Active 139 / 144 40% 1 22.11.2026 -
Matheus Dias Nacional Active 125 / 128 40% 2 21.11.2026 -
Álvaro Martínez Moreirense Active 112 / 128 40% 1 21.11.2026 -
Willer Ditta Cruz Azul Active 131 / 117 40% 2 20.11.2026 -
Erik Lira Cruz Azul Active 145 / 118 40% 1 20.11.2026 -
Vitinho Botafogo Active 141 / 137 40% 1 20.11.2026 -
Tamble Monteiro Rio Ave Active 129 / 110 40% 2 15.11.2026 -
Martinelli Fluminense Active 133 / 145 40% 2 14.11.2026 -
Kevin Prieto Casa Pia Active 101 / 127 40% 2 14.11.2026 -
Victor Hugo Atlético Mineiro Active 131 / 136 40% 1 14.11.2026 -
Sabino Sport Recife Active 126 / 121 40% 1 14.11.2026 -
Lee Hyun-Ju Arouca Active 128 / 119 40% 5 08.11.2026 -
Óscar Aranda Espanyol Active 131 / 134 40% 1 08.11.2026 -
Thapelo Maseko FC Copenhagen Active 116 / 133 40% 1 08.11.2026 -
Lucas Duarte Felgueiras Active 116 / 109 40% 2 05.11.2026 -
Rok Zajc NK Domzale Active 122 / 135 40% 1 05.11.2026 -
Damián Bobadilla Sport Recife Active 131 / 127 40% 1 05.11.2026 -
Israel Reyes Club America Active 143 / 125 40% 1 05.11.2026 -
Rodrigo Ramos Moreirense Active 111 / 122 40% 3 03.11.2026 -
Luka Romero Cruz Azul Active 121 / 116 40% 1 03.11.2026 -
Kélian Nsona Casa Pia Active 109 / 114 40% 1 03.11.2026 -
Santiago Sosa Vasco da Gama Active 133 / 129 40% 1 01.11.2026 -
Víctor Guzmán Monterrey Active 122 / 124 40% 1 01.11.2026 -
Fabrício Bruno Cruzeiro Active 140 / 144 40% 2 31.10.2026 -
Jordan Holsgrove Estoril Praia Active 137 / 117 40% 2 31.10.2026 -
Joe Hodge Tondela Active 120 / 111 40% 2 30.10.2026 -
Brenner Santa Clara Active 116 / 126 40% 4 28.10.2026 -
Diogo Spencer Alverca Active 109 / 103 40% 1 28.10.2026 -
William Cruzeiro Active 135 / 125 40% 2 24.10.2026 -
Santiago Ascacíbar Boca Juniors Active 131 / 136 40% 1 23.10.2026 -
Sebastián Cáceres Club America Active 131 / 133 40% 1 23.10.2026 -
Kevin Lomónaco Independiente Active 126 / 128 40% 1 23.10.2026 -
Majid Dejagah Gostaresh Foulad Active 124 / 132 40% 2 20.10.2026 -
Tomás Chancalay Minnesota United FC Active 128 / 138 40% 1 19.10.2026 -
Marcos Paulo Juventude Active 114 / 107 40% 1 18.10.2026 -
Fabio Blanco Vitoria Guimaraes Active 115 / 121 40% 3 17.10.2026 -
Beni Mukendi Vitoria Guimaraes Active 130 / 129 40% 2 17.10.2026 -
Espen van Ee Arouca Active 108 / 120 40% 1 15.10.2026 -
Thauan Lara Portimonense Active 102 / 111 40% 2 14.10.2026 -
Relebohile Mofokeng Orlando Pirates Active 126 / 122 40% 1 14.10.2026 -
Lucas Veríssimo Santos Active 140 / 132 40% 1 14.10.2026 -
Ayrton Costa Boca Juniors Active 130 / 140 40% 1 14.10.2026 -
Bruno Méndez Toluca Active 124 / 119 40% 1 14.10.2026 -
Kevin Álvarez Club America Active 130 / 121 40% 1 13.10.2026 -
Rodrigo Pinheiro Famalicao Active 129 / 143 40% 2 12.10.2026 -
Brian Gutiérrez Guadalajara Active 132 / 121 40% 1 12.10.2026 -
Tony Strata Vitoria Guimaraes Active 112 / 113 40% 1 12.10.2026 -
Percy Erasmus SuperSport United Active 122 / 126 40% 1 12.10.2026 -
Isidro Pitta Bragantino Active 131 / 117 40% 1 12.10.2026 -
Joaquim Tigres Active 133 / 129 40% 1 08.10.2026 -
Marcos Antonio Sport Recife Active 134 / 134 40% 1 05.10.2026 -
Iker Benito Queretaro Active 127 / 119 40% 1 04.10.2026 -
João Marques Braga Active 121 / 129 40% 1 04.10.2026 -
Telasco Segovia Inter Miami CF Active 135 / 145 40% 2 01.10.2026 -
Omar Campos Cruz Azul Active 116 / 134 40% 1 01.10.2026 -
Afonso Assis Moreirense Active 107 / 126 40% 1 01.10.2026 -
Luciano Juba Bahia Active 141 / 121 40% 3 30.09.2026 -
Alex Luna Instituto Active 131 / 138 40% 1 30.09.2026 -
Javi Sánchez Arouca Active 125 / 127 40% 1 30.09.2026 -
Martim Fernandes Porto Active 135 / 154 40% 2 29.09.2026 -
Saúl Flamengo Active 141 / 134 40% 1 29.09.2026 -
Alexis Cuello San Lorenzo Active 121 / 114 40% 1 26.09.2026 -
Ozziel Herrera Tigres Active 136 / 111 40% 1 21.09.2026 -
Francisco Moura Porto Active 131 / 124 40% 1 18.09.2026 -
Francisco Domingues Moreirense Active 115 / 101 40% 2 17.09.2026 -
Talles Magno New York City Active 127 / 128 40% 2 17.09.2026 -
Tomás O'Connor Gimnasia y Esgrima Active 126 / 129 40% 1 17.09.2026 -
Manu Pozo Torreense Active 113 / 127 40% 2 15.09.2026 -
Manuel Mendonça Moreirense Active 109 / 117 40% 1 13.09.2026 -
Tiago Ribeiro Oliveirense Active 108 / 127 40% 1 13.09.2026 -
Renan Lodi Atlético Mineiro Active 136 / 133 40% 3 12.09.2026 -
Gustaf Lagerbielke Braga Active 137 / 119 40% 1 12.09.2026 -
Alessandro Circati Benfica Active 135 / 122 40% 2 11.09.2026 -
Vitor Carvalho Braga Active 123 / 146 40% 1 11.09.2026 -
Hwang In-Beom Porto Active 141 / 147 40% 2 10.09.2026 -
Enzo Díaz Sport Recife Active 137 / 135 40% 1 10.09.2026 -
Sergio Quintero La Equidad Active 138 / 138 40% 1 10.09.2026 -
Haissem Hassan Bloemfontein Celtic Active 122 / 150 40% 1 09.09.2026 -
Roland Galčík Rio Ave Active 118 / 123 40% 1 08.09.2026 -
Cesar Corona Veracruz Active 144 / 133 40% 1 08.09.2026 -
Paulinho Palmeiras Active 142 / 145 40% 1 08.09.2026 -
Diogo Bezerra Rio Ave Active 113 / 102 40% 1 30.08.2026 -
Lovro Zvonarek Estrela da Amadora Active 117 / 131 40% 1 29.08.2026 -
Gabriel Silva Braga Active 117 / 138 40% 1 29.08.2026 -
Gabriel Veron Porto Active 128 / 111 40% 1 27.08.2026 -
Salvador Blopá Sporting CP Active 104 / 117 40% 1 24.08.2026 -
Gianluca Prestianni Benfica Active 129 / 126 40% 1 24.08.2026 -
Diogo Travassos Braga Active 128 / 139 40% 2 23.08.2026 -
Max Scholze Estrela da Amadora Active 111 / 118 40% 1 23.08.2026 -
Santi García Gil Vicente Active 137 / 144 40% 1 21.08.2026 -
Soma Anzai FC Tokyo Active 120 / 117 40% 1 21.08.2026 -
Lohann Doucet Vitoria Guimaraes Active 119 / 131 40% 1 18.08.2026 -
William Gomes Porto Active 128 / 143 40% 1 16.08.2026 -
Danilo Botafogo Active 140 / 126 40% 1 16.08.2026 -
Gustavo Garcia Famalicao Active 116 / 120 40% 1 14.08.2026 -
Nuno Santos Sporting CP Active 132 / 131 40% 1 13.08.2026 -
Evander FC Cincinnati Active 142 / 145 40% 1 13.08.2026 -
Sergi Altimira Sporting CP Active 136 / 157 40% 1 07.08.2026 -
Alberto Costa Porto Active 145 / 155 40% 1 05.08.2026 -
Francisco Chissumba Braga Active 112 / 106 40% 1 05.08.2026 -
Leonardo Lelo Braga Active 139 / 144 40% 1 05.08.2026 -
Joaquín Piquerez Palmeiras Active 138 / 134 40% 1 04.08.2026 -
Zeno Debast Sporting CP Active 128 / 140 40% 1 04.08.2026 -
Caio Alexandre Bahia Active 136 / 147 40% 1 02.08.2026 -
Alexander Bah Benfica Active 139 / 121 40% 1 02.08.2026 -
Issa Doumbia Sporting CP Active 109 / 115 40% 1 02.08.2026 -
Matija Mitrović Vitoria Guimaraes Active 118 / 121 40% 1 02.08.2026 -